Time;durP1;ratioP1;P1;durP2;ratioP2;P2;SDS_P1;SDS_P2;PMS_P1;PMS_P2;Temp;Humidity;BMP_temperature;BMP_pressure;BME280_temperature;BME280_humidity;BME280_pressure;Samples;Min_cycle;Max_cycle;Signal;HPM_P1;HPM_P2
2021/12/20 00:00:46;;;;;;;;;;;20.50;46.30;;;;;;4960661;28;19919;-62
2021/12/20 00:03:11;;;;;;;;;;;20.50;46.30;;;;;;4947315;28;20001;-62
2021/12/20 00:05:37;;;;;;;;;;;20.50;46.30;;;;;;4946493;28;20383;-62
2021/12/20 00:08:02;;;;;;;;;;;20.50;46.30;;;;;;4946086;28;20280;-62
2021/12/20 00:10:28;;;;;;;;;;;20.50;46.30;;;;;;4944985;28;19918;-62
2021/12/20 00:12:53;;;;;;;;;;;20.50;46.30;;;;;;4943099;28;19919;-62
2021/12/20 00:15:18;;;;;;;;;;;20.50;46.40;;;;;;4946445;28;19918;-62
2021/12/20 00:17:46;;;;;;;;;;;20.50;46.40;;;;;;4941852;28;21312;-61
2021/12/20 00:20:11;;;;;;;;;;;20.50;46.40;;;;;;4977103;28;20279;-62
2021/12/20 00:22:37;;;;;;;;;;;20.40;46.20;;;;;;4946784;28;19914;-61
2021/12/20 00:25:03;;;;;;;;;;;20.40;46.30;;;;;;4976298;28;20033;-62
2021/12/20 00:27:28;;;;;;;;;;;20.40;46.10;;;;;;4975668;28;19926;-62
2021/12/20 00:29:54;;;;;;;;;;;20.40;46.10;;;;;;4975541;28;19926;-62
2021/12/20 00:32:19;;;;;;;;;;;20.40;46.00;;;;;;4945153;28;19969;-62
2021/12/20 00:34:45;;;;;;;;;;;20.40;46.00;;;;;;4946518;28;19914;-62
2021/12/20 00:42:39;;;;;;;;;;;20.30;46.00;;;;;;4947254;28;19922;-62
2021/12/20 00:45:04;;;;;;;;;;;20.30;46.10;;;;;;4942514;28;20359;-62
2021/12/20 00:47:30;;;;;;;;;;;20.30;45.90;;;;;;4976159;28;20374;-62
2021/12/20 00:49:55;;;;;;;;;;;20.30;45.90;;;;;;4945001;28;19919;-62
2021/12/20 00:52:21;;;;;;;;;;;20.30;45.90;;;;;;4947814;28;19930;-61
2021/12/20 00:54:46;;;;;;;;;;;20.30;45.90;;;;;;4946142;28;19914;-61
2021/12/20 00:57:12;;;;;;;;;;;20.30;45.90;;;;;;4946116;28;19970;-62
2021/12/20 00:59:37;;;;;;;;;;;20.30;45.90;;;;;;4944628;28;19923;-62
2021/12/20 01:02:03;;;;;;;;;;;20.20;45.80;;;;;;4945527;28;19914;-61
2021/12/20 01:04:28;;;;;;;;;;;20.20;45.80;;;;;;4945215;28;19919;-62
2021/12/20 01:06:53;;;;;;;;;;;20.20;45.80;;;;;;4944013;28;20319;-61
2021/12/20 01:09:19;;;;;;;;;;;20.20;45.70;;;;;;4946527;28;19918;-61
2021/12/20 01:11:50;;;;;;;;;;;20.20;45.70;;;;;;4944287;28;20295;-62
2021/12/20 01:14:22;;;;;;;;;;;20.10;45.70;;;;;;4950847;28;19919;-62
2021/12/20 01:16:47;;;;;;;;;;;20.10;45.70;;;;;;4959747;28;19918;-61
2021/12/20 01:19:13;;;;;;;;;;;20.10;45.80;;;;;;4945307;28;19922;-62
2021/12/20 01:21:38;;;;;;;;;;;20.10;45.80;;;;;;4943162;28;20558;-62
2021/12/20 01:24:04;;;;;;;;;;;20.10;45.80;;;;;;4944202;28;19919;-62
2021/12/20 01:26:29;;;;;;;;;;;20.10;45.80;;;;;;4946062;28;20141;-62
2021/12/20 01:28:55;;;;;;;;;;;20.00;45.80;;;;;;4975061;28;19914;-62
2021/12/20 01:31:20;;;;;;;;;;;20.00;45.80;;;;;;4943989;28;19919;-62
2021/12/20 01:33:46;;;;;;;;;;;20.00;45.70;;;;;;4945044;28;19923;-62
2021/12/20 01:36:12;;;;;;;;;;;20.10;45.80;;;;;;4975623;28;19919;-62
2021/12/20 01:38:37;;;;;;;;;;;20.00;45.60;;;;;;4945913;28;19914;-62
2021/12/20 01:41:03;;;;;;;;;;;20.10;45.70;;;;;;4945014;28;19960;-62
2021/12/20 01:43:29;;;;;;;;;;;20.00;45.60;;;;;;4944727;28;19954;-62
2021/12/20 01:45:54;;;;;;;;;;;20.00;45.70;;;;;;4942409;28;19923;-61
2021/12/20 01:48:21;;;;;;;;;;;20.00;45.70;;;;;;4944706;28;19922;-62
2021/12/20 01:53:13;;;;;;;;;;;20.00;45.70;;;;;;4944460;28;20286;-62
2021/12/20 01:55:38;;;;;;;;;;;20.00;45.60;;;;;;4944407;28;19990;-62
2021/12/20 01:58:04;;;;;;;;;;;20.00;45.50;;;;;;4942355;28;19924;-62
2021/12/20 02:00:29;;;;;;;;;;;19.90;45.40;;;;;;4943613;28;20013;-62
2021/12/20 02:03:02;;;;;;;;;;;19.90;45.50;;;;;;4944645;28;20002;-62
2021/12/20 02:08:14;;;;;;;;;;;19.90;45.60;;;;;;4952475;28;19964;-62
2021/12/20 02:10:40;;;;;;;;;;;19.90;45.40;;;;;;4971148;28;20382;-62
2021/12/20 02:13:05;;;;;;;;;;;19.90;45.60;;;;;;4943335;28;19914;-62
2021/12/20 02:15:31;;;;;;;;;;;19.90;45.50;;;;;;4962219;28;20433;-62
2021/12/20 02:17:56;;;;;;;;;;;19.90;45.40;;;;;;4960225;28;19934;-62
2021/12/20 02:20:25;;;;;;;;;;;19.90;45.40;;;;;;4942796;28;19974;-62
2021/12/20 02:22:53;;;;;;;;;;;19.90;45.30;;;;;;4943843;28;20013;-62
2021/12/20 02:25:18;;;;;;;;;;;19.90;45.30;;;;;;4940653;28;19926;-62
2021/12/20 02:27:44;;;;;;;;;;;19.90;45.30;;;;;;4944173;28;19929;-62
2021/12/20 02:30:25;;;;;;;;;;;20.00;45.20;;;;;;4944435;28;20386;-62
2021/12/20 02:38:22;;;;;;;;;;;20.20;44.60;;;;;;4971202;28;19922;-62
2021/12/20 02:40:55;;;;;;;;;;;20.30;44.50;;;;;;4943381;28;19919;-63
2021/12/20 02:43:21;;;;;;;;;;;20.40;44.30;;;;;;4942865;28;19923;-62
2021/12/20 02:45:47;;;;;;;;;;;20.50;44.20;;;;;;4943607;28;19957;-62
2021/12/20 02:48:13;;;;;;;;;;;20.60;44.00;;;;;;4943815;28;20002;-62
2021/12/20 02:50:38;;;;;;;;;;;20.60;43.80;;;;;;4943369;28;20017;-62
2021/12/20 02:53:04;;;;;;;;;;;20.70;43.80;;;;;;4944966;28;19966;-62
2021/12/20 02:55:29;;;;;;;;;;;20.80;43.60;;;;;;4943048;28;19922;-62
2021/12/20 02:57:54;;;;;;;;;;;20.80;43.50;;;;;;4942772;28;19915;-62
2021/12/20 03:00:20;;;;;;;;;;;20.80;43.40;;;;;;4941447;28;20276;-62
2021/12/20 03:02:45;;;;;;;;;;;20.70;43.30;;;;;;4942763;28;19962;-62
2021/12/20 03:05:11;;;;;;;;;;;20.70;43.40;;;;;;4943563;28;19933;-62
2021/12/20 03:07:45;;;;;;;;;;;20.70;43.30;;;;;;4975148;28;19914;-62
2021/12/20 03:10:11;;;;;;;;;;;20.70;43.30;;;;;;4973564;28;22023;-62
2021/12/20 03:12:36;;;;;;;;;;;20.70;43.20;;;;;;4943300;28;19915;-62
2021/12/20 03:15:09;;;;;;;;;;;20.70;43.30;;;;;;4975325;28;19925;-62
2021/12/20 03:17:35;;;;;;;;;;;20.70;43.20;;;;;;4950970;28;20438;-62
2021/12/20 03:20:00;;;;;;;;;;;20.70;43.30;;;;;;4942904;28;20028;-62
2021/12/20 03:22:26;;;;;;;;;;;20.70;43.30;;;;;;4943160;28;19968;-62
2021/12/20 03:24:51;;;;;;;;;;;20.70;43.20;;;;;;4943605;28;19958;-62
2021/12/20 03:27:17;;;;;;;;;;;20.70;43.20;;;;;;4975412;28;19914;-62
2021/12/20 03:29:42;;;;;;;;;;;20.60;43.20;;;;;;4943248;28;19919;-62
2021/12/20 03:32:07;;;;;;;;;;;20.60;43.20;;;;;;4943856;28;19914;-62
2021/12/20 03:34:33;;;;;;;;;;;20.60;43.20;;;;;;4944666;28;19914;-62
2021/12/20 03:36:58;;;;;;;;;;;20.60;43.30;;;;;;4947051;28;20450;-62
2021/12/20 03:39:24;;;;;;;;;;;20.60;43.30;;;;;;4947092;28;19934;-62
2021/12/20 03:41:50;;;;;;;;;;;20.60;43.30;;;;;;4973672;28;19915;-62
2021/12/20 03:44:16;;;;;;;;;;;20.60;43.20;;;;;;4943312;28;19976;-62
2021/12/20 03:46:41;;;;;;;;;;;20.60;43.20;;;;;;4944548;28;19926;-62
2021/12/20 03:49:07;;;;;;;;;;;20.50;43.10;;;;;;4945144;28;19919;-62
2021/12/20 03:51:32;;;;;;;;;;;20.50;43.30;;;;;;4942195;28;19922;-62
2021/12/20 03:53:58;;;;;;;;;;;20.50;43.20;;;;;;4945755;28;19954;-62
2021/12/20 03:56:24;;;;;;;;;;;20.50;43.20;;;;;;4949765;28;19934;-61
2021/12/20 03:58:50;;;;;;;;;;;20.50;43.20;;;;;;4976854;28;19984;-62
2021/12/20 04:01:15;;;;;;;;;;;20.40;43.10;;;;;;4947652;28;19915;-62
2021/12/20 04:03:41;;;;;;;;;;;20.40;43.20;;;;;;4948473;28;19918;-62
2021/12/20 04:06:07;;;;;;;;;;;20.40;43.20;;;;;;4944306;28;20319;-62
2021/12/20 04:08:33;;;;;;;;;;;20.40;43.20;;;;;;4946755;28;19944;-62
2021/12/20 04:10:58;;;;;;;;;;;20.50;43.20;;;;;;4946042;28;19989;-62
2021/12/20 04:13:24;;;;;;;;;;;20.40;43.10;;;;;;4960864;28;20389;-62
2021/12/20 04:15:49;;;;;;;;;;;20.40;43.00;;;;;;4947281;28;19925;-62
2021/12/20 04:18:15;;;;;;;;;;;20.40;43.10;;;;;;4947240;28;19914;-62
2021/12/20 04:20:40;;;;;;;;;;;20.40;43.00;;;;;;4945699;28;19918;-62
2021/12/20 04:23:06;;;;;;;;;;;20.40;43.00;;;;;;4976538;28;19921;-62
2021/12/20 04:25:31;;;;;;;;;;;20.40;43.00;;;;;;4975879;28;19929;-62
2021/12/20 04:27:57;;;;;;;;;;;20.40;42.90;;;;;;4975732;28;19998;-62
2021/12/20 04:30:22;;;;;;;;;;;20.30;43.00;;;;;;4944717;28;19915;-62
2021/12/20 04:32:48;;;;;;;;;;;20.20;43.20;;;;;;4946913;28;19918;-62
2021/12/20 04:35:14;;;;;;;;;;;20.10;43.30;;;;;;4979777;28;20377;-62
2021/12/20 04:37:41;;;;;;;;;;;20.10;43.40;;;;;;4945447;28;19926;-62
2021/12/20 04:40:10;;;;;;;;;;;20.10;43.40;;;;;;4944497;28;19925;-62
2021/12/20 04:42:35;;;;;;;;;;;20.10;43.30;;;;;;4946112;28;19959;-62
2021/12/20 04:45:01;;;;;;;;;;;20.10;43.20;;;;;;4946547;28;19929;-62
2021/12/20 04:47:26;;;;;;;;;;;20.20;43.30;;;;;;4977346;28;20005;-62
2021/12/20 04:49:52;;;;;;;;;;;20.20;43.20;;;;;;4945803;28;20271;-62
2021/12/20 04:52:17;;;;;;;;;;;20.30;43.20;;;;;;4946120;28;19937;-62
2021/12/20 04:54:42;;;;;;;;;;;20.30;43.20;;;;;;4943745;28;19918;-62
2021/12/20 04:57:09;;;;;;;;;;;20.30;43.10;;;;;;4945964;28;19966;-62
2021/12/20 04:59:34;;;;;;;;;;;20.30;43.00;;;;;;4949929;29;20347;-62
2021/12/20 05:01:59;;;;;;;;;;;20.30;43.00;;;;;;4948233;29;19918;-62
2021/12/20 05:04:25;;;;;;;;;;;20.30;43.00;;;;;;4950985;28;19924;-61
2021/12/20 05:06:50;;;;;;;;;;;20.40;42.90;;;;;;4953758;29;19978;-62
2021/12/20 05:09:18;;;;;;;;;;;20.30;42.80;;;;;;4954719;29;20012;-62
2021/12/20 05:11:50;;;;;;;;;;;20.30;42.70;;;;;;4956464;28;19918;-63
2021/12/20 05:14:16;;;;;;;;;;;20.40;42.90;;;;;;4964656;28;19921;-62
2021/12/20 05:16:41;;;;;;;;;;;20.30;42.80;;;;;;4954154;28;20323;-61
2021/12/20 05:19:06;;;;;;;;;;;20.30;42.70;;;;;;4954234;29;19914;-62
2021/12/20 05:21:32;;;;;;;;;;;20.30;42.60;;;;;;4952351;28;20402;-62
2021/12/20 05:23:57;;;;;;;;;;;20.30;42.60;;;;;;4954574;29;19911;-62
2021/12/20 05:26:23;;;;;;;;;;;20.40;42.60;;;;;;4953653;29;20075;-62
2021/12/20 05:28:49;;;;;;;;;;;20.30;42.60;;;;;;4960705;28;19995;-62
2021/12/20 05:31:14;;;;;;;;;;;20.30;42.70;;;;;;4954173;28;19919;-62
2021/12/20 05:33:40;;;;;;;;;;;20.30;42.70;;;;;;4982314;28;20299;-62
2021/12/20 05:36:06;;;;;;;;;;;20.30;42.70;;;;;;4952861;28;19937;-62
2021/12/20 05:38:31;;;;;;;;;;;20.30;42.70;;;;;;4953547;29;20306;-62
2021/12/20 05:40:56;;;;;;;;;;;20.20;42.50;;;;;;4954026;29;20342;-62
2021/12/20 05:43:22;;;;;;;;;;;20.30;42.50;;;;;;4954323;29;20002;-62
2021/12/20 05:45:47;;;;;;;;;;;20.30;42.60;;;;;;4944457;28;20318;-62
2021/12/20 05:48:13;;;;;;;;;;;20.30;42.50;;;;;;4944435;28;20272;-61
2021/12/20 05:50:38;;;;;;;;;;;20.30;42.50;;;;;;4944530;28;19921;-61
2021/12/20 05:53:04;;;;;;;;;;;20.30;42.40;;;;;;4942811;28;20005;-62
2021/12/20 05:55:29;;;;;;;;;;;20.30;42.30;;;;;;4975896;28;19958;-62
2021/12/20 05:57:54;;;;;;;;;;;20.40;42.20;;;;;;4944709;28;19978;-62
2021/12/20 06:00:20;;;;;;;;;;;20.40;42.20;;;;;;4945382;28;19915;-61
2021/12/20 06:02:46;;;;;;;;;;;20.40;42.20;;;;;;4977807;28;19997;-62
2021/12/20 06:05:12;;;;;;;;;;;20.40;42.20;;;;;;4983805;28;20375;-62
2021/12/20 06:07:40;;;;;;;;;;;20.40;42.10;;;;;;4953700;29;20009;-62
2021/12/20 06:10:06;;;;;;;;;;;20.40;42.10;;;;;;4953669;29;20040;-62
2021/12/20 06:12:32;;;;;;;;;;;20.40;42.10;;;;;;4953176;28;19997;-61
2021/12/20 06:14:57;;;;;;;;;;;20.40;42.10;;;;;;4970030;28;19911;-62
2021/12/20 06:17:22;;;;;;;;;;;20.30;42.10;;;;;;4953651;29;19917;-62
2021/12/20 06:19:48;;;;;;;;;;;20.30;42.10;;;;;;4952630;29;19911;-61
2021/12/20 06:22:13;;;;;;;;;;;20.30;42.10;;;;;;4953890;29;19914;-62
2021/12/20 06:24:39;;;;;;;;;;;20.30;42.10;;;;;;4953358;29;19942;-62
2021/12/20 06:27:04;;;;;;;;;;;20.30;42.10;;;;;;4953501;29;19911;-61
2021/12/20 06:29:30;;;;;;;;;;;20.30;42.10;;;;;;4953653;29;19950;-62
2021/12/20 06:31:55;;;;;;;;;;;20.30;42.20;;;;;;4953507;29;19936;-62
2021/12/20 06:34:21;;;;;;;;;;;20.20;42.20;;;;;;4962537;28;19942;-62
2021/12/20 06:36:46;;;;;;;;;;;20.20;42.10;;;;;;4952493;29;19915;-62
2021/12/20 06:39:12;;;;;;;;;;;20.20;42.20;;;;;;4952625;29;19918;-62
2021/12/20 06:41:37;;;;;;;;;;;20.20;42.30;;;;;;4953231;29;19957;-62
2021/12/20 06:44:04;;;;;;;;;;;20.20;42.30;;;;;;4951893;29;19966;-62
2021/12/20 06:46:29;;;;;;;;;;;20.10;42.30;;;;;;4950152;29;19923;-62
2021/12/20 06:48:55;;;;;;;;;;;20.10;42.30;;;;;;4961288;28;19929;-62
2021/12/20 06:51:20;;;;;;;;;;;20.10;42.30;;;;;;4943024;28;19925;-62
2021/12/20 06:53:46;;;;;;;;;;;20.10;42.30;;;;;;4973526;28;20041;-62
2021/12/20 06:56:12;;;;;;;;;;;20.20;42.30;;;;;;4943357;28;19993;-62
2021/12/20 06:58:38;;;;;;;;;;;20.20;42.20;;;;;;4946394;28;19922;-62
2021/12/20 07:01:04;;;;;;;;;;;20.20;42.10;;;;;;4956147;28;19919;-62
2021/12/20 07:03:29;;;;;;;;;;;20.20;42.10;;;;;;4943258;28;19919;-62
2021/12/20 07:05:54;;;;;;;;;;;20.10;42.20;;;;;;4974137;28;19926;-62
2021/12/20 07:08:20;;;;;;;;;;;20.10;42.10;;;;;;4956445;28;19914;-62
2021/12/20 07:10:45;;;;;;;;;;;20.20;42.10;;;;;;4943901;28;19915;-62
2021/12/20 07:13:11;;;;;;;;;;;20.20;42.20;;;;;;4944189;28;20061;-62
2021/12/20 07:15:37;;;;;;;;;;;20.20;42.10;;;;;;4943064;28;20339;-62
2021/12/20 07:18:03;;;;;;;;;;;20.20;42.10;;;;;;4974763;28;19915;-62
2021/12/20 07:20:28;;;;;;;;;;;20.20;42.10;;;;;;4941471;28;23055;-62
2021/12/20 07:22:53;;;;;;;;;;;20.20;42.20;;;;;;4974894;28;19926;-62
2021/12/20 07:25:19;;;;;;;;;;;20.20;42.00;;;;;;4943238;28;20404;-62
2021/12/20 07:27:48;;;;;;;;;;;20.20;42.00;;;;;;4947282;28;20383;-62
2021/12/20 07:30:13;;;;;;;;;;;20.20;42.20;;;;;;4975898;28;19949;-62
2021/12/20 07:32:39;;;;;;;;;;;20.20;42.20;;;;;;4977124;28;19918;-62
2021/12/20 07:35:04;;;;;;;;;;;20.20;42.10;;;;;;4978561;28;19977;-61
2021/12/20 07:37:30;;;;;;;;;;;20.20;42.30;;;;;;4946986;28;20314;-61
2021/12/20 07:39:55;;;;;;;;;;;20.20;42.20;;;;;;4947076;28;19918;-62
2021/12/20 07:42:21;;;;;;;;;;;20.10;42.20;;;;;;4946375;28;19945;-62
2021/12/20 07:44:46;;;;;;;;;;;20.10;42.20;;;;;;4947460;28;19922;-62
2021/12/20 07:47:12;;;;;;;;;;;20.20;42.20;;;;;;4945685;28;20339;-62
2021/12/20 07:49:37;;;;;;;;;;;20.10;42.10;;;;;;4943805;28;19926;-61
2021/12/20 07:52:03;;;;;;;;;;;20.10;42.30;;;;;;4976841;28;19915;-62
2021/12/20 07:54:28;;;;;;;;;;;20.10;42.30;;;;;;4978222;28;20400;-62
2021/12/20 07:56:54;;;;;;;;;;;20.10;42.90;;;;;;4947774;28;19922;-62
2021/12/20 07:59:19;;;;;;;;;;;20.20;43.00;;;;;;4977884;28;19915;-62
2021/12/20 08:01:45;;;;;;;;;;;20.40;42.80;;;;;;4943838;28;19925;-62
2021/12/20 08:04:10;;;;;;;;;;;20.70;42.40;;;;;;4946809;28;19915;-63
2021/12/20 08:06:36;;;;;;;;;;;21.00;42.00;;;;;;4975409;28;19966;-62
2021/12/20 08:09:01;;;;;;;;;;;21.20;41.40;;;;;;4977326;28;23275;-62
2021/12/20 08:11:26;;;;;;;;;;;21.40;41.10;;;;;;4948503;28;19993;-62
2021/12/20 08:13:52;;;;;;;;;;;21.60;41.10;;;;;;4953016;29;20442;-62
2021/12/20 08:16:19;;;;;;;;;;;21.70;40.90;;;;;;4954446;29;20455;-61
2021/12/20 08:18:45;;;;;;;;;;;21.80;40.70;;;;;;4955012;28;19922;-63
2021/12/20 08:21:10;;;;;;;;;;;21.80;40.50;;;;;;4951014;28;19930;-62
2021/12/20 08:23:36;;;;;;;;;;;21.90;40.60;;;;;;4978704;28;20430;-65
2021/12/20 08:26:02;;;;;;;;;;;22.00;40.50;;;;;;4955090;28;19941;-62
2021/12/20 08:28:27;;;;;;;;;;;22.00;40.30;;;;;;4985843;28;19922;-62
2021/12/20 08:30:53;;;;;;;;;;;22.10;40.30;;;;;;4951397;29;19961;-62
2021/12/20 08:33:18;;;;;;;;;;;22.10;40.30;;;;;;4955272;29;19962;-62
2021/12/20 08:35:44;;;;;;;;;;;22.20;40.20;;;;;;4984814;28;19923;-62
2021/12/20 08:38:09;;;;;;;;;;;22.30;40.30;;;;;;4954446;28;20013;-61
2021/12/20 08:40:34;;;;;;;;;;;22.30;40.10;;;;;;4953603;29;19915;-61
2021/12/20 08:43:01;;;;;;;;;;;22.30;40.00;;;;;;4954789;29;19926;-62
2021/12/20 08:45:26;;;;;;;;;;;22.30;40.00;;;;;;4954487;28;20025;-62
2021/12/20 08:47:52;;;;;;;;;;;22.40;40.00;;;;;;4954726;29;20406;-62
2021/12/20 08:50:17;;;;;;;;;;;22.40;40.00;;;;;;4954053;29;20001;-62
2021/12/20 08:52:43;;;;;;;;;;;22.40;39.90;;;;;;4954800;28;19926;-62
2021/12/20 08:55:09;;;;;;;;;;;22.50;39.80;;;;;;4954188;29;20379;-63
2021/12/20 08:57:34;;;;;;;;;;;22.50;39.70;;;;;;4984420;28;19922;-61
2021/12/20 09:00:00;;;;;;;;;;;22.50;39.70;;;;;;4954614;28;19915;-62
2021/12/20 09:02:25;;;;;;;;;;;22.50;39.60;;;;;;4953479;28;19922;-63
2021/12/20 09:04:51;;;;;;;;;;;22.60;39.70;;;;;;4952637;28;20069;-62
2021/12/20 09:07:17;;;;;;;;;;;22.60;39.60;;;;;;4939608;29;19954;-63
2021/12/20 09:09:47;;;;;;;;;;;22.60;39.60;;;;;;4953484;29;19919;-62
2021/12/20 09:12:13;;;;;;;;;;;22.60;39.50;;;;;;4953967;28;19918;-63
2021/12/20 09:14:38;;;;;;;;;;;22.70;39.50;;;;;;4983639;28;20287;-63
2021/12/20 09:17:04;;;;;;;;;;;22.70;39.40;;;;;;4952909;28;19918;-63
2021/12/20 09:19:29;;;;;;;;;;;22.70;39.40;;;;;;4969018;28;19922;-62
2021/12/20 09:21:55;;;;;;;;;;;22.70;39.30;;;;;;4984105;28;20388;-63
2021/12/20 09:24:20;;;;;;;;;;;22.80;39.30;;;;;;4953244;29;20327;-63
2021/12/20 09:26:46;;;;;;;;;;;22.80;39.20;;;;;;4953938;29;20403;-62
2021/12/20 09:29:11;;;;;;;;;;;22.80;39.10;;;;;;4954242;29;19922;-62
2021/12/20 09:31:37;;;;;;;;;;;22.90;39.10;;;;;;4953674;29;19911;-62
2021/12/20 09:34:02;;;;;;;;;;;22.90;39.10;;;;;;4951839;29;19910;-62
2021/12/20 09:36:29;;;;;;;;;;;22.90;39.00;;;;;;4953075;29;20330;-61
2021/12/20 09:38:58;;;;;;;;;;;22.90;39.10;;;;;;4953641;29;20367;-62
2021/12/20 09:44:05;;;;;;;;;;;22.90;39.10;;;;;;4986970;28;19966;-62
2021/12/20 09:46:30;;;;;;;;;;;22.80;39.10;;;;;;4968313;28;19914;-62
2021/12/20 09:48:57;;;;;;;;;;;22.80;39.10;;;;;;4984364;28;19910;-62
2021/12/20 09:51:23;;;;;;;;;;;22.90;39.10;;;;;;4953104;28;19917;-62
2021/12/20 09:53:48;;;;;;;;;;;22.90;39.10;;;;;;4953351;29;19910;-62
2021/12/20 09:56:14;;;;;;;;;;;22.90;39.00;;;;;;4983117;28;19984;-62
2021/12/20 09:58:40;;;;;;;;;;;22.90;39.00;;;;;;4953595;29;19957;-62
2021/12/20 10:01:06;;;;;;;;;;;22.90;39.00;;;;;;4953103;28;20009;-61
2021/12/20 10:03:31;;;;;;;;;;;23.00;39.10;;;;;;4952646;28;20138;-62
2021/12/20 10:05:57;;;;;;;;;;;23.00;39.10;;;;;;4982958;28;19929;-62
2021/12/20 10:08:32;;;;;;;;;;;23.00;38.90;;;;;;4953082;29;20429;-62
2021/12/20 10:10:57;;;;;;;;;;;23.00;38.90;;;;;;4981926;28;19918;-62
2021/12/20 10:13:24;;;;;;;;;;;23.00;39.00;;;;;;4984523;28;19997;-62
2021/12/20 10:15:50;;;;;;;;;;;23.00;39.00;;;;;;4952367;28;19922;-63
2021/12/20 10:18:15;;;;;;;;;;;23.10;39.10;;;;;;4983956;28;19937;-62
2021/12/20 10:20:41;;;;;;;;;;;23.00;39.00;;;;;;4952489;29;19962;-62
2021/12/20 10:23:08;;;;;;;;;;;23.10;39.10;;;;;;4975628;28;19942;-62
2021/12/20 10:25:34;;;;;;;;;;;23.10;39.10;;;;;;4952838;29;19914;-63
2021/12/20 10:28:05;;;;;;;;;;;23.10;39.10;;;;;;4952979;29;19918;-63
2021/12/20 10:30:32;;;;;;;;;;;23.10;39.10;;;;;;4952895;29;19921;-63
2021/12/20 10:32:57;;;;;;;;;;;23.10;39.00;;;;;;4952640;29;20434;-63
2021/12/20 10:35:26;;;;;;;;;;;23.10;39.00;;;;;;4952561;29;19962;-62
2021/12/20 10:37:56;;;;;;;;;;;23.20;39.00;;;;;;4952912;29;19954;-62
2021/12/20 10:40:22;;;;;;;;;;;23.20;39.00;;;;;;4952794;28;19921;-62
2021/12/20 10:42:49;;;;;;;;;;;23.20;39.00;;;;;;4952530;29;19914;-63
2021/12/20 10:45:17;;;;;;;;;;;23.20;39.00;;;;;;4952123;28;19953;-62
2021/12/20 10:47:43;;;;;;;;;;;23.20;39.00;;;;;;4952948;28;19911;-62
2021/12/20 10:50:22;;;;;;;;;;;23.30;39.00;;;;;;4952183;29;19938;-62
2021/12/20 10:52:48;;;;;;;;;;;23.20;39.00;;;;;;4953094;28;19911;-63
2021/12/20 10:55:13;;;;;;;;;;;23.30;39.10;;;;;;4948341;29;20346;-62
2021/12/20 10:57:39;;;;;;;;;;;23.30;39.10;;;;;;4951895;28;19919;-63
2021/12/20 11:00:18;;;;;;;;;;;23.30;39.10;;;;;;4952693;29;19915;-63
2021/12/20 11:03:18;;;;;;;;;;;23.30;39.00;;;;;;4952525;28;19915;-63
2021/12/20 11:06:12;;;;;;;;;;;23.30;38.90;;;;;;4952949;29;19933;-62
2021/12/20 11:11:17;;;;;;;;;;;23.50;39.40;;;;;;4982383;28;20449;-62
2021/12/20 11:13:42;;;;;;;;;;;23.50;38.50;;;;;;4952432;29;19910;-62
2021/12/20 11:16:26;;;;;;;;;;;23.50;38.60;;;;;;4956431;29;20069;-63
2021/12/20 11:19:07;;;;;;;;;;;23.50;38.60;;;;;;4956976;28;19921;-62
2021/12/20 11:21:35;;;;;;;;;;;23.50;38.70;;;;;;4955267;29;19922;-63
2021/12/20 11:24:00;;;;;;;;;;;23.50;38.50;;;;;;4956899;28;20001;-62
2021/12/20 11:26:27;;;;;;;;;;;23.50;38.50;;;;;;4956197;29;19921;-63
2021/12/20 11:28:56;;;;;;;;;;;23.50;38.40;;;;;;4955041;29;19915;-63
2021/12/20 11:31:22;;;;;;;;;;;23.50;38.30;;;;;;4941698;29;19918;-63
2021/12/20 11:33:47;;;;;;;;;;;23.60;38.40;;;;;;4953745;28;20001;-63
2021/12/20 11:36:13;;;;;;;;;;;23.60;38.40;;;;;;4986528;28;19921;-63
2021/12/20 11:38:39;;;;;;;;;;;23.60;38.40;;;;;;4956204;29;19911;-63
2021/12/20 11:41:05;;;;;;;;;;;23.60;38.30;;;;;;4955818;29;19961;-63
2021/12/20 11:43:30;;;;;;;;;;;23.60;38.30;;;;;;4956166;28;20011;-62
2021/12/20 11:45:56;;;;;;;;;;;23.60;38.30;;;;;;4955198;29;20400;-63
2021/12/20 11:48:22;;;;;;;;;;;23.60;38.30;;;;;;4987011;28;19919;-62
2021/12/20 11:50:47;;;;;;;;;;;23.60;38.30;;;;;;4985381;28;19911;-63
2021/12/20 11:53:14;;;;;;;;;;;23.60;38.20;;;;;;4964987;28;19998;-63
2021/12/20 11:55:52;;;;;;;;;;;23.60;38.10;;;;;;4955309;29;20389;-63
2021/12/20 11:58:17;;;;;;;;;;;23.60;38.00;;;;;;4955847;29;19926;-63
2021/12/20 12:00:49;;;;;;;;;;;23.60;38.10;;;;;;4954523;28;20337;-63
2021/12/20 12:03:15;;;;;;;;;;;23.60;38.00;;;;;;4984929;28;20306;-63
2021/12/20 12:05:56;;;;;;;;;;;23.70;38.10;;;;;;4950345;28;19930;-63
2021/12/20 12:08:30;;;;;;;;;;;23.70;38.00;;;;;;4954577;28;19998;-63
2021/12/20 12:11:16;;;;;;;;;;;23.70;38.00;;;;;;4951102;28;20410;-62
2021/12/20 12:13:59;;;;;;;;;;;23.70;37.90;;;;;;4941936;28;19922;-63
2021/12/20 12:16:45;;;;;;;;;;;23.70;37.80;;;;;;4951444;28;20002;-62
2021/12/20 12:19:11;;;;;;;;;;;23.70;37.80;;;;;;4969404;28;19933;-63
2021/12/20 12:21:39;;;;;;;;;;;23.70;37.80;;;;;;4955411;28;20110;-63
2021/12/20 12:24:05;;;;;;;;;;;23.70;37.80;;;;;;4953180;28;19926;-62
2021/12/20 12:26:33;;;;;;;;;;;23.70;37.70;;;;;;4955109;28;19918;-63
2021/12/20 12:28:59;;;;;;;;;;;23.70;37.70;;;;;;4954667;28;20013;-62
2021/12/20 12:31:24;;;;;;;;;;;23.70;37.60;;;;;;4969294;28;19997;-62
2021/12/20 12:34:09;;;;;;;;;;;23.70;37.70;;;;;;4986250;28;19914;-61
2021/12/20 12:36:42;;;;;;;;;;;23.80;37.70;;;;;;4985433;28;19915;-63
2021/12/20 12:39:27;;;;;;;;;;;23.70;37.60;;;;;;4954933;28;19957;-63
2021/12/20 12:41:56;;;;;;;;;;;23.80;37.80;;;;;;4954945;29;19915;-63
2021/12/20 12:44:22;;;;;;;;;;;23.80;37.60;;;;;;4955006;28;19915;-63
2021/12/20 12:46:55;;;;;;;;;;;23.80;37.50;;;;;;4954323;28;19918;-63
2021/12/20 12:49:21;;;;;;;;;;;23.80;37.70;;;;;;4947001;28;19910;-63
2021/12/20 12:51:52;;;;;;;;;;;23.80;37.70;;;;;;4953987;29;20465;-62
2021/12/20 12:54:33;;;;;;;;;;;23.80;37.50;;;;;;4953663;28;19953;-62
2021/12/20 12:57:07;;;;;;;;;;;23.80;37.60;;;;;;4952601;29;19914;-62
2021/12/20 12:59:32;;;;;;;;;;;23.80;37.50;;;;;;4954746;29;19946;-62
2021/12/20 13:01:58;;;;;;;;;;;23.80;37.50;;;;;;4948622;29;19914;-62
2021/12/20 13:04:44;;;;;;;;;;;23.80;37.50;;;;;;4978866;28;19941;-62
2021/12/20 13:07:09;;;;;;;;;;;23.80;37.60;;;;;;4985271;28;19918;-63
2021/12/20 13:09:42;;;;;;;;;;;23.80;37.60;;;;;;4954183;28;20368;-63
2021/12/20 13:12:14;;;;;;;;;;;23.80;37.50;;;;;;4982773;28;19945;-62
2021/12/20 13:14:53;;;;;;;;;;;23.80;37.50;;;;;;4984077;28;19915;-62
2021/12/20 13:17:28;;;;;;;;;;;23.80;37.50;;;;;;4939733;29;20486;-62
2021/12/20 13:20:07;;;;;;;;;;;23.80;37.50;;;;;;4953964;29;20390;-63
2021/12/20 13:22:32;;;;;;;;;;;23.80;37.40;;;;;;4954078;29;19925;-63
2021/12/20 13:24:57;;;;;;;;;;;23.80;37.50;;;;;;4953843;28;19914;-63
2021/12/20 13:27:28;;;;;;;;;;;23.80;37.60;;;;;;4984822;28;19914;-62
2021/12/20 13:29:53;;;;;;;;;;;23.80;37.50;;;;;;4954870;28;20030;-62
2021/12/20 13:32:19;;;;;;;;;;;23.80;37.50;;;;;;4954345;29;20007;-62
2021/12/20 13:34:44;;;;;;;;;;;23.80;37.50;;;;;;4953410;29;19918;-62
2021/12/20 13:37:12;;;;;;;;;;;23.80;37.60;;;;;;4953974;29;19914;-62
2021/12/20 13:39:38;;;;;;;;;;;23.80;37.40;;;;;;4954436;28;19910;-63
2021/12/20 13:42:06;;;;;;;;;;;23.80;37.40;;;;;;4953195;29;20327;-62
2021/12/20 13:44:32;;;;;;;;;;;23.80;37.50;;;;;;4953587;28;20022;-63
2021/12/20 13:47:01;;;;;;;;;;;23.80;37.40;;;;;;4953798;29;20457;-62
2021/12/20 13:49:27;;;;;;;;;;;23.80;37.50;;;;;;4984121;28;19911;-62
2021/12/20 13:51:56;;;;;;;;;;;23.80;37.50;;;;;;4976316;28;19922;-62
2021/12/20 13:54:26;;;;;;;;;;;23.80;37.50;;;;;;4946918;29;19914;-63
2021/12/20 13:57:14;;;;;;;;;;;23.90;37.70;;;;;;4953498;28;19945;-63
2021/12/20 13:59:58;;;;;;;;;;;23.90;37.50;;;;;;4984405;28;19921;-62
2021/12/20 14:02:27;;;;;;;;;;;23.90;37.60;;;;;;4953551;28;19910;-63
2021/12/20 14:04:53;;;;;;;;;;;23.90;37.60;;;;;;4952374;28;20375;-63
2021/12/20 14:07:28;;;;;;;;;;;23.90;37.70;;;;;;4953617;29;19910;-62
2021/12/20 14:10:00;;;;;;;;;;;23.90;37.70;;;;;;4952802;29;19922;-62
2021/12/20 14:12:31;;;;;;;;;;;23.80;37.70;;;;;;4953310;29;19922;-62
2021/12/20 14:14:59;;;;;;;;;;;23.90;37.80;;;;;;4983952;28;19917;-62
2021/12/20 14:17:25;;;;;;;;;;;23.80;37.80;;;;;;4953674;29;20350;-62
2021/12/20 14:20:00;;;;;;;;;;;23.90;38.00;;;;;;4952108;29;19950;-62
2021/12/20 14:22:26;;;;;;;;;;;23.90;37.70;;;;;;4949328;28;19948;-63
2021/12/20 14:24:58;;;;;;;;;;;23.90;37.70;;;;;;4949947;29;19918;-62
2021/12/20 14:27:24;;;;;;;;;;;23.90;37.70;;;;;;4939436;29;19916;-62
2021/12/20 14:29:49;;;;;;;;;;;23.90;37.80;;;;;;4953054;29;20286;-62
2021/12/20 14:32:34;;;;;;;;;;;23.90;37.80;;;;;;4953174;29;20532;-62
2021/12/20 14:34:59;;;;;;;;;;;23.90;37.90;;;;;;4952601;29;20903;-63
2021/12/20 14:37:25;;;;;;;;;;;23.90;37.90;;;;;;4947856;28;19911;-63